sensor_id;sensor_type;location;lat;lon;timestamp;P1;durP1;ratioP1;P2;durP2;ratioP2
44985;SDS011;30721;49.380;7.736;2022-10-16T16:22:46;8.52;;;5.95;;
44985;SDS011;30721;49.380;7.736;2022-10-16T16:25:12;6.15;;;5.38;;
44985;SDS011;30721;49.380;7.736;2022-10-16T16:27:37;10.40;;;9.30;;
44985;SDS011;30721;49.380;7.736;2022-10-16T16:30:04;11.27;;;10.13;;
44985;SDS011;30721;49.380;7.736;2022-10-16T16:32:32;11.48;;;10.23;;
44985;SDS011;30721;49.380;7.736;2022-10-16T16:34:58;12.32;;;11.05;;
44985;SDS011;30721;49.380;7.736;2022-10-16T16:37:23;12.73;;;11.13;;
44985;SDS011;30721;49.380;7.736;2022-10-16T16:39:49;9.25;;;7.43;;
44985;SDS011;30721;49.380;7.736;2022-10-16T16:42:14;7.57;;;6.32;;
44985;SDS011;30721;49.380;7.736;2022-10-16T16:44:39;5.97;;;5.32;;
44985;SDS011;30721;49.380;7.736;2022-10-16T16:47:05;8.98;;;6.55;;
44985;SDS011;30721;49.380;7.736;2022-10-16T16:49:31;9.50;;;7.68;;
44985;SDS011;30721;49.380;7.736;2022-10-16T16:51:56;9.90;;;6.88;;
44985;SDS011;30721;49.380;7.736;2022-10-16T16:54:21;8.23;;;6.15;;
44985;SDS011;30721;49.380;7.736;2022-10-16T16:56:47;9.38;;;6.00;;
44985;SDS011;30721;49.380;7.736;2022-10-16T16:59:13;9.80;;;6.18;;
44985;SDS011;30721;49.380;7.736;2022-10-16T17:01:39;11.32;;;7.40;;
44985;SDS011;30721;49.380;7.736;2022-10-16T17:04:05;6.93;;;5.93;;
44985;SDS011;30721;49.380;7.736;2022-10-16T17:06:31;7.18;;;5.60;;
44985;SDS011;30721;49.380;7.736;2022-10-16T17:08:57;7.25;;;5.50;;
44985;SDS011;30721;49.380;7.736;2022-10-16T17:11:24;6.03;;;4.95;;
44985;SDS011;30721;49.380;7.736;2022-10-16T17:13:51;6.47;;;5.88;;
44985;SDS011;30721;49.380;7.736;2022-10-16T17:16:19;8.68;;;6.07;;
44985;SDS011;30721;49.380;7.736;2022-10-16T17:18:44;8.18;;;7.05;;
44985;SDS011;30721;49.380;7.736;2022-10-16T17:21:10;8.63;;;6.43;;
44985;SDS011;30721;49.380;7.736;2022-10-16T17:23:36;8.48;;;6.82;;
44985;SDS011;30721;49.380;7.736;2022-10-16T17:26:06;7.72;;;6.97;;
44985;SDS011;30721;49.380;7.736;2022-10-16T17:28:32;8.57;;;7.40;;
44985;SDS011;30721;49.380;7.736;2022-10-16T17:31:11;8.65;;;6.60;;
44985;SDS011;30721;49.380;7.736;2022-10-16T17:33:38;7.28;;;6.57;;
44985;SDS011;30721;49.380;7.736;2022-10-16T17:36:04;8.20;;;7.43;;
44985;SDS011;30721;49.380;7.736;2022-10-16T17:38:30;8.93;;;7.95;;
44985;SDS011;30721;49.380;7.736;2022-10-16T17:40:55;11.50;;;8.27;;
44985;SDS011;30721;49.380;7.736;2022-10-16T17:43:20;13.95;;;11.95;;
44985;SDS011;30721;49.380;7.736;2022-10-16T17:45:46;11.82;;;10.57;;
44985;SDS011;30721;49.380;7.736;2022-10-16T17:48:11;12.05;;;10.63;;
44985;SDS011;30721;49.380;7.736;2022-10-16T17:50:40;9.60;;;8.60;;
44985;SDS011;30721;49.380;7.736;2022-10-16T17:53:06;8.50;;;7.30;;
44985;SDS011;30721;49.380;7.736;2022-10-16T17:55:41;8.40;;;6.93;;
44985;SDS011;30721;49.380;7.736;2022-10-16T17:58:07;8.63;;;6.45;;
44985;SDS011;30721;49.380;7.736;2022-10-16T18:00:33;7.55;;;6.70;;
44985;SDS011;30721;49.380;7.736;2022-10-16T18:02:58;6.78;;;5.90;;
44985;SDS011;30721;49.380;7.736;2022-10-16T18:05:24;7.70;;;6.10;;
44985;SDS011;30721;49.380;7.736;2022-10-16T18:07:49;5.82;;;5.28;;
44985;SDS011;30721;49.380;7.736;2022-10-16T18:10:14;7.85;;;5.43;;
44985;SDS011;30721;49.380;7.736;2022-10-16T18:12:40;7.88;;;5.15;;
44985;SDS011;30721;49.380;7.736;2022-10-16T18:15:05;6.40;;;4.90;;
44985;SDS011;30721;49.380;7.736;2022-10-16T18:17:33;8.02;;;5.78;;
44985;SDS011;30721;49.380;7.736;2022-10-16T18:20:01;10.00;;;5.20;;
44985;SDS011;30721;49.380;7.736;2022-10-16T18:22:27;8.50;;;5.75;;
44985;SDS011;30721;49.380;7.736;2022-10-16T18:24:54;9.05;;;6.90;;
44985;SDS011;30721;49.380;7.736;2022-10-16T18:27:22;11.70;;;8.23;;
44985;SDS011;30721;49.380;7.736;2022-10-16T18:29:47;10.10;;;8.55;;
44985;SDS011;30721;49.380;7.736;2022-10-16T18:32:13;10.05;;;7.40;;
44985;SDS011;30721;49.380;7.736;2022-10-16T18:34:38;8.27;;;6.22;;
44985;SDS011;30721;49.380;7.736;2022-10-16T18:37:03;7.53;;;6.20;;
44985;SDS011;30721;49.380;7.736;2022-10-16T18:39:29;7.30;;;5.63;;
44985;SDS011;30721;49.380;7.736;2022-10-16T18:41:54;8.48;;;5.28;;
44985;SDS011;30721;49.380;7.736;2022-10-16T18:44:23;7.75;;;5.20;;
44985;SDS011;30721;49.380;7.736;2022-10-16T18:46:50;6.93;;;4.88;;
44985;SDS011;30721;49.380;7.736;2022-10-16T18:49:16;8.13;;;4.55;;
44985;SDS011;30721;49.380;7.736;2022-10-16T18:51:42;7.22;;;4.80;;
44985;SDS011;30721;49.380;7.736;2022-10-16T18:54:09;9.02;;;5.20;;
44985;SDS011;30721;49.380;7.736;2022-10-16T18:56:36;6.10;;;4.78;;
44985;SDS011;30721;49.380;7.736;2022-10-16T18:59:04;8.18;;;5.20;;
44985;SDS011;30721;49.380;7.736;2022-10-16T19:01:31;5.53;;;4.00;;
44985;SDS011;30721;49.380;7.736;2022-10-16T19:04:00;4.75;;;4.25;;
44985;SDS011;30721;49.380;7.736;2022-10-16T19:06:31;6.47;;;4.80;;
44985;SDS011;30721;49.380;7.736;2022-10-16T19:08:59;5.78;;;4.13;;
44985;SDS011;30721;49.380;7.736;2022-10-16T19:11:24;9.05;;;3.97;;
44985;SDS011;30721;49.380;7.736;2022-10-16T19:13:50;6.05;;;4.78;;
44985;SDS011;30721;49.380;7.736;2022-10-16T19:16:17;7.05;;;4.03;;
44985;SDS011;30721;49.380;7.736;2022-10-16T19:18:44;6.50;;;4.13;;
44985;SDS011;30721;49.380;7.736;2022-10-16T19:21:10;4.10;;;3.70;;
44985;SDS011;30721;49.380;7.736;2022-10-16T19:23:37;3.65;;;3.35;;
44985;SDS011;30721;49.380;7.736;2022-10-16T19:26:04;7.20;;;3.85;;
44985;SDS011;30721;49.380;7.736;2022-10-16T19:28:30;5.75;;;3.75;;
44985;SDS011;30721;49.380;7.736;2022-10-16T19:30:59;7.80;;;4.50;;
44985;SDS011;30721;49.380;7.736;2022-10-16T19:33:25;8.25;;;4.68;;
44985;SDS011;30721;49.380;7.736;2022-10-16T19:35:51;5.85;;;3.63;;
44985;SDS011;30721;49.380;7.736;2022-10-16T19:38:16;8.30;;;4.72;;
44985;SDS011;30721;49.380;7.736;2022-10-16T19:40:42;7.30;;;5.32;;
44985;SDS011;30721;49.380;7.736;2022-10-16T19:43:07;4.32;;;3.75;;
44985;SDS011;30721;49.380;7.736;2022-10-16T19:45:32;4.60;;;3.83;;
44985;SDS011;30721;49.380;7.736;2022-10-16T19:47:58;5.65;;;3.95;;
44985;SDS011;30721;49.380;7.736;2022-10-16T19:50:23;6.32;;;4.43;;
44985;SDS011;30721;49.380;7.736;2022-10-16T19:52:48;9.55;;;4.10;;
44985;SDS011;30721;49.380;7.736;2022-10-16T19:55:14;6.53;;;3.33;;
44985;SDS011;30721;49.380;7.736;2022-10-16T19:57:40;7.18;;;4.78;;
44985;SDS011;30721;49.380;7.736;2022-10-16T20:00:06;6.68;;;4.00;;
44985;SDS011;30721;49.380;7.736;2022-10-16T20:02:33;3.90;;;3.60;;
44985;SDS011;30721;49.380;7.736;2022-10-16T20:04:58;4.43;;;3.65;;
44985;SDS011;30721;49.380;7.736;2022-10-16T20:07:24;4.78;;;3.75;;
44985;SDS011;30721;49.380;7.736;2022-10-16T20:09:49;7.85;;;4.47;;
44985;SDS011;30721;49.380;7.736;2022-10-16T20:12:15;6.85;;;3.97;;
44985;SDS011;30721;49.380;7.736;2022-10-16T20:14:40;6.47;;;3.80;;
44985;SDS011;30721;49.380;7.736;2022-10-16T20:17:06;4.88;;;4.00;;
44985;SDS011;30721;49.380;7.736;2022-10-16T20:19:31;7.05;;;3.50;;
44985;SDS011;30721;49.380;7.736;2022-10-16T20:21:58;5.22;;;4.00;;
44985;SDS011;30721;49.380;7.736;2022-10-16T20:24:24;5.85;;;4.10;;
44985;SDS011;30721;49.380;7.736;2022-10-16T20:26:49;5.07;;;3.70;;
44985;SDS011;30721;49.380;7.736;2022-10-16T20:29:15;6.40;;;4.90;;
44985;SDS011;30721;49.380;7.736;2022-10-16T20:31:40;5.20;;;3.47;;
44985;SDS011;30721;49.380;7.736;2022-10-16T20:34:07;7.22;;;3.67;;
44985;SDS011;30721;49.380;7.736;2022-10-16T20:36:34;4.38;;;3.72;;
44985;SDS011;30721;49.380;7.736;2022-10-16T20:39:00;7.47;;;3.70;;
44985;SDS011;30721;49.380;7.736;2022-10-16T20:41:26;4.75;;;3.78;;
44985;SDS011;30721;49.380;7.736;2022-10-16T20:43:52;8.98;;;3.92;;
44985;SDS011;30721;49.380;7.736;2022-10-16T20:46:18;6.43;;;3.53;;
44985;SDS011;30721;49.380;7.736;2022-10-16T20:48:46;10.05;;;5.25;;
44985;SDS011;30721;49.380;7.736;2022-10-16T20:51:13;3.75;;;3.40;;
44985;SDS011;30721;49.380;7.736;2022-10-16T20:53:40;8.02;;;3.55;;
44985;SDS011;30721;49.380;7.736;2022-10-16T20:56:05;6.70;;;4.15;;
44985;SDS011;30721;49.380;7.736;2022-10-16T20:58:33;3.80;;;3.08;;
44985;SDS011;30721;49.380;7.736;2022-10-16T21:01:06;6.03;;;3.30;;
44985;SDS011;30721;49.380;7.736;2022-10-16T21:03:32;4.65;;;2.92;;
44985;SDS011;30721;49.380;7.736;2022-10-16T21:05:57;5.15;;;2.92;;
44985;SDS011;30721;49.380;7.736;2022-10-16T21:08:23;7.30;;;3.20;;
44985;SDS011;30721;49.380;7.736;2022-10-16T21:10:48;3.95;;;2.80;;
44985;SDS011;30721;49.380;7.736;2022-10-16T21:13:13;4.05;;;3.13;;
44985;SDS011;30721;49.380;7.736;2022-10-16T21:15:39;5.70;;;3.10;;
44985;SDS011;30721;49.380;7.736;2022-10-16T21:18:04;4.32;;;3.08;;
44985;SDS011;30721;49.380;7.736;2022-10-16T21:20:29;4.97;;;2.80;;
44985;SDS011;30721;49.380;7.736;2022-10-16T21:22:55;6.40;;;2.90;;
44985;SDS011;30721;49.380;7.736;2022-10-16T21:25:20;7.60;;;2.72;;
44985;SDS011;30721;49.380;7.736;2022-10-16T21:27:45;3.22;;;2.83;;
44985;SDS011;30721;49.380;7.736;2022-10-16T21:30:11;4.45;;;2.42;;
44985;SDS011;30721;49.380;7.736;2022-10-16T21:32:37;5.30;;;3.42;;
44985;SDS011;30721;49.380;7.736;2022-10-16T21:35:03;3.40;;;3.10;;
44985;SDS011;30721;49.380;7.736;2022-10-16T21:37:29;3.42;;;2.80;;
44985;SDS011;30721;49.380;7.736;2022-10-16T21:39:55;3.47;;;2.72;;
44985;SDS011;30721;49.380;7.736;2022-10-16T21:42:20;4.82;;;2.80;;
44985;SDS011;30721;49.380;7.736;2022-10-16T21:44:46;4.70;;;2.67;;
44985;SDS011;30721;49.380;7.736;2022-10-16T21:47:11;2.70;;;2.45;;
44985;SDS011;30721;49.380;7.736;2022-10-16T21:49:36;3.10;;;2.80;;
44985;SDS011;30721;49.380;7.736;2022-10-16T21:52:02;3.88;;;3.00;;
44985;SDS011;30721;49.380;7.736;2022-10-16T21:54:28;3.08;;;2.67;;
44985;SDS011;30721;49.380;7.736;2022-10-16T21:56:54;2.90;;;2.33;;
44985;SDS011;30721;49.380;7.736;2022-10-16T21:59:19;3.38;;;2.97;;
44985;SDS011;30721;49.380;7.736;2022-10-16T22:01:45;6.18;;;2.67;;
44985;SDS011;30721;49.380;7.736;2022-10-16T22:04:11;3.10;;;2.80;;
44985;SDS011;30721;49.380;7.736;2022-10-16T22:06:37;3.63;;;2.70;;
44985;SDS011;30721;49.380;7.736;2022-10-16T22:09:03;4.15;;;2.70;;
44985;SDS011;30721;49.380;7.736;2022-10-16T22:11:29;6.72;;;2.72;;
44985;SDS011;30721;49.380;7.736;2022-10-16T22:14:00;4.43;;;2.53;;
44985;SDS011;30721;49.380;7.736;2022-10-16T22:16:30;5.07;;;2.40;;
44985;SDS011;30721;49.380;7.736;2022-10-16T22:18:56;3.83;;;2.53;;
44985;SDS011;30721;49.380;7.736;2022-10-16T22:21:22;4.97;;;2.42;;
44985;SDS011;30721;49.380;7.736;2022-10-16T22:23:47;4.32;;;2.50;;
44985;SDS011;30721;49.380;7.736;2022-10-16T22:26:13;2.95;;;2.40;;
44985;SDS011;30721;49.380;7.736;2022-10-16T22:28:39;2.92;;;2.40;;
44985;SDS011;30721;49.380;7.736;2022-10-16T22:31:06;3.33;;;2.60;;
44985;SDS011;30721;49.380;7.736;2022-10-16T22:33:33;4.20;;;2.60;;
44985;SDS011;30721;49.380;7.736;2022-10-16T22:35:59;2.63;;;2.28;;
44985;SDS011;30721;49.380;7.736;2022-10-16T22:38:27;4.40;;;2.67;;
44985;SDS011;30721;49.380;7.736;2022-10-16T22:40:53;3.92;;;2.75;;
44985;SDS011;30721;49.380;7.736;2022-10-16T22:43:19;4.70;;;2.70;;
44985;SDS011;30721;49.380;7.736;2022-10-16T22:45:44;4.03;;;2.90;;
44985;SDS011;30721;49.380;7.736;2022-10-16T22:48:09;3.13;;;2.33;;
44985;SDS011;30721;49.380;7.736;2022-10-16T22:50:35;3.10;;;2.20;;
44985;SDS011;30721;49.380;7.736;2022-10-16T22:53:00;5.95;;;2.70;;
44985;SDS011;30721;49.380;7.736;2022-10-16T22:55:25;5.75;;;3.10;;
44985;SDS011;30721;49.380;7.736;2022-10-16T22:57:53;8.60;;;2.75;;
44985;SDS011;30721;49.380;7.736;2022-10-16T23:00:20;3.75;;;2.47;;
44985;SDS011;30721;49.380;7.736;2022-10-16T23:02:45;4.97;;;2.55;;
44985;SDS011;30721;49.380;7.736;2022-10-16T23:05:11;3.53;;;2.40;;
44985;SDS011;30721;49.380;7.736;2022-10-16T23:07:36;3.47;;;2.15;;
44985;SDS011;30721;49.380;7.736;2022-10-16T23:10:03;6.93;;;2.75;;
44985;SDS011;30721;49.380;7.736;2022-10-16T23:12:29;3.45;;;2.35;;
44985;SDS011;30721;49.380;7.736;2022-10-16T23:14:54;3.83;;;2.28;;
44985;SDS011;30721;49.380;7.736;2022-10-16T23:17:20;3.35;;;2.40;;
44985;SDS011;30721;49.380;7.736;2022-10-16T23:19:45;3.65;;;2.42;;
44985;SDS011;30721;49.380;7.736;2022-10-16T23:22:11;4.72;;;2.60;;
44985;SDS011;30721;49.380;7.736;2022-10-16T23:24:36;5.25;;;2.65;;
44985;SDS011;30721;49.380;7.736;2022-10-16T23:27:01;4.63;;;2.63;;
44985;SDS011;30721;49.380;7.736;2022-10-16T23:29:27;4.13;;;2.30;;
44985;SDS011;30721;49.380;7.736;2022-10-16T23:31:53;5.47;;;2.80;;
44985;SDS011;30721;49.380;7.736;2022-10-16T23:34:19;3.40;;;2.40;;
44985;SDS011;30721;49.380;7.736;2022-10-16T23:36:44;4.93;;;2.55;;
44985;SDS011;30721;49.380;7.736;2022-10-16T23:39:09;9.10;;;3.08;;
44985;SDS011;30721;49.380;7.736;2022-10-16T23:41:35;4.13;;;2.40;;
44985;SDS011;30721;49.380;7.736;2022-10-16T23:44:00;3.55;;;2.20;;
44985;SDS011;30721;49.380;7.736;2022-10-16T23:46:25;4.50;;;2.53;;
44985;SDS011;30721;49.380;7.736;2022-10-16T23:48:51;4.97;;;2.42;;
44985;SDS011;30721;49.380;7.736;2022-10-16T23:51:17;3.63;;;2.03;;
44985;SDS011;30721;49.380;7.736;2022-10-16T23:53:42;3.45;;;2.50;;
44985;SDS011;30721;49.380;7.736;2022-10-16T23:56:08;4.82;;;2.33;;
44985;SDS011;30721;49.380;7.736;2022-10-16T23:58:33;4.60;;;2.67;;
